sensor_id;sensor_type;location;lat;lon;timestamp;P1;durP1;ratioP1;P2;durP2;ratioP2
72728;SDS011;60843;52.062;4.508;2022-08-01T00:00:31;15.80;;;5.82;;
72728;SDS011;60843;52.062;4.508;2022-08-01T00:02:57;15.13;;;6.20;;
72728;SDS011;60843;52.062;4.508;2022-08-01T00:05:22;12.13;;;5.85;;
72728;SDS011;60843;52.062;4.508;2022-08-01T00:07:51;15.30;;;5.95;;
72728;SDS011;60843;52.062;4.508;2022-08-01T00:10:16;13.00;;;5.10;;
72728;SDS011;60843;52.062;4.508;2022-08-01T00:12:43;12.27;;;5.05;;
72728;SDS011;60843;52.062;4.508;2022-08-01T00:15:09;15.30;;;5.35;;
72728;SDS011;60843;52.062;4.508;2022-08-01T00:17:36;13.50;;;5.53;;
72728;SDS011;60843;52.062;4.508;2022-08-01T00:20:02;12.25;;;6.10;;
72728;SDS011;60843;52.062;4.508;2022-08-01T00:22:30;12.50;;;5.50;;
72728;SDS011;60843;52.062;4.508;2022-08-01T00:24:56;11.77;;;4.85;;
72728;SDS011;60843;52.062;4.508;2022-08-01T00:27:21;13.82;;;4.60;;
72728;SDS011;60843;52.062;4.508;2022-08-01T00:29:46;10.27;;;4.65;;
72728;SDS011;60843;52.062;4.508;2022-08-01T00:32:12;13.17;;;5.27;;
72728;SDS011;60843;52.062;4.508;2022-08-01T00:34:37;11.23;;;4.40;;
72728;SDS011;60843;52.062;4.508;2022-08-01T00:37:03;10.75;;;4.32;;
72728;SDS011;60843;52.062;4.508;2022-08-01T00:39:28;10.03;;;4.73;;
72728;SDS011;60843;52.062;4.508;2022-08-01T00:41:54;11.48;;;4.95;;
72728;SDS011;60843;52.062;4.508;2022-08-01T00:44:19;10.18;;;4.40;;
72728;SDS011;60843;52.062;4.508;2022-08-01T00:46:44;9.40;;;3.97;;
72728;SDS011;60843;52.062;4.508;2022-08-01T00:49:10;6.93;;;2.97;;
72728;SDS011;60843;52.062;4.508;2022-08-01T00:51:35;7.90;;;3.20;;
72728;SDS011;60843;52.062;4.508;2022-08-01T00:54:01;7.63;;;3.33;;
72728;SDS011;60843;52.062;4.508;2022-08-01T00:56:27;6.47;;;3.03;;
72728;SDS011;60843;52.062;4.508;2022-08-01T00:58:53;7.57;;;3.20;;
72728;SDS011;60843;52.062;4.508;2022-08-01T01:01:19;7.93;;;3.53;;
72728;SDS011;60843;52.062;4.508;2022-08-01T01:03:46;5.68;;;2.33;;
72728;SDS011;60843;52.062;4.508;2022-08-01T01:06:15;4.88;;;2.20;;
72728;SDS011;60843;52.062;4.508;2022-08-01T01:08:58;6.80;;;2.30;;
72728;SDS011;60843;52.062;4.508;2022-08-01T01:11:55;5.78;;;2.63;;
72728;SDS011;60843;52.062;4.508;2022-08-01T01:14:36;6.13;;;2.90;;
72728;SDS011;60843;52.062;4.508;2022-08-01T01:17:24;6.35;;;2.78;;
72728;SDS011;60843;52.062;4.508;2022-08-01T01:19:55;7.32;;;3.42;;
72728;SDS011;60843;52.062;4.508;2022-08-01T01:22:35;6.93;;;3.80;;
72728;SDS011;60843;52.062;4.508;2022-08-01T01:30:29;8.48;;;4.30;;
72728;SDS011;60843;52.062;4.508;2022-08-01T01:32:55;6.32;;;3.47;;
72728;SDS011;60843;52.062;4.508;2022-08-01T01:35:26;7.57;;;2.88;;
72728;SDS011;60843;52.062;4.508;2022-08-01T01:38:15;5.07;;;2.55;;
72728;SDS011;60843;52.062;4.508;2022-08-01T01:40:47;5.22;;;2.47;;
72728;SDS011;60843;52.062;4.508;2022-08-01T01:43:13;5.90;;;3.08;;
72728;SDS011;60843;52.062;4.508;2022-08-01T01:45:40;4.13;;;2.70;;
72728;SDS011;60843;52.062;4.508;2022-08-01T01:48:07;4.68;;;2.53;;
72728;SDS011;60843;52.062;4.508;2022-08-01T01:50:33;5.72;;;2.63;;
72728;SDS011;60843;52.062;4.508;2022-08-01T01:52:59;5.65;;;2.60;;
72728;SDS011;60843;52.062;4.508;2022-08-01T01:55:26;5.78;;;2.53;;
72728;SDS011;60843;52.062;4.508;2022-08-01T01:57:52;6.85;;;2.22;;
72728;SDS011;60843;52.062;4.508;2022-08-01T02:00:19;5.70;;;2.53;;
72728;SDS011;60843;52.062;4.508;2022-08-01T02:02:44;5.03;;;2.22;;
72728;SDS011;60843;52.062;4.508;2022-08-01T02:05:11;5.88;;;3.10;;
72728;SDS011;60843;52.062;4.508;2022-08-01T02:07:37;6.55;;;2.70;;
72728;SDS011;60843;52.062;4.508;2022-08-01T02:10:04;8.25;;;3.17;;
72728;SDS011;60843;52.062;4.508;2022-08-01T02:12:32;8.32;;;3.30;;
72728;SDS011;60843;52.062;4.508;2022-08-01T02:14:59;7.95;;;3.05;;
72728;SDS011;60843;52.062;4.508;2022-08-01T02:17:25;5.28;;;2.85;;
72728;SDS011;60843;52.062;4.508;2022-08-01T02:19:52;7.93;;;2.72;;
72728;SDS011;60843;52.062;4.508;2022-08-01T02:22:32;6.28;;;3.38;;
72728;SDS011;60843;52.062;4.508;2022-08-01T02:25:05;5.65;;;3.53;;
72728;SDS011;60843;52.062;4.508;2022-08-01T02:27:37;7.30;;;3.20;;
72728;SDS011;60843;52.062;4.508;2022-08-01T02:30:07;5.63;;;3.35;;
72728;SDS011;60843;52.062;4.508;2022-08-01T02:35:01;7.65;;;3.20;;
72728;SDS011;60843;52.062;4.508;2022-08-01T02:37:28;6.40;;;3.55;;
72728;SDS011;60843;52.062;4.508;2022-08-01T02:39:56;5.65;;;3.00;;
72728;SDS011;60843;52.062;4.508;2022-08-01T02:42:23;12.10;;;3.70;;
72728;SDS011;60843;52.062;4.508;2022-08-01T02:44:52;9.48;;;3.70;;
72728;SDS011;60843;52.062;4.508;2022-08-01T02:47:19;6.40;;;3.50;;
72728;SDS011;60843;52.062;4.508;2022-08-01T02:49:46;5.90;;;3.28;;
72728;SDS011;60843;52.062;4.508;2022-08-01T02:52:13;8.27;;;3.47;;
72728;SDS011;60843;52.062;4.508;2022-08-01T02:54:41;6.47;;;3.17;;
72728;SDS011;60843;52.062;4.508;2022-08-01T02:57:09;6.38;;;2.90;;
72728;SDS011;60843;52.062;4.508;2022-08-01T02:59:36;4.43;;;2.30;;
72728;SDS011;60843;52.062;4.508;2022-08-01T03:02:03;5.75;;;2.65;;
72728;SDS011;60843;52.062;4.508;2022-08-01T03:04:30;5.20;;;2.47;;
72728;SDS011;60843;52.062;4.508;2022-08-01T03:06:57;5.22;;;2.65;;
72728;SDS011;60843;52.062;4.508;2022-08-01T03:09:24;6.28;;;2.55;;
72728;SDS011;60843;52.062;4.508;2022-08-01T03:11:51;3.83;;;2.10;;
72728;SDS011;60843;52.062;4.508;2022-08-01T03:14:17;6.30;;;2.72;;
72728;SDS011;60843;52.062;4.508;2022-08-01T03:16:45;5.07;;;2.42;;
72728;SDS011;60843;52.062;4.508;2022-08-01T03:19:11;4.72;;;2.58;;
72728;SDS011;60843;52.062;4.508;2022-08-01T03:21:38;5.13;;;2.42;;
72728;SDS011;60843;52.062;4.508;2022-08-01T03:24:04;5.35;;;2.92;;
72728;SDS011;60843;52.062;4.508;2022-08-01T03:26:31;4.55;;;2.63;;
72728;SDS011;60843;52.062;4.508;2022-08-01T03:29:05;7.03;;;2.72;;
72728;SDS011;60843;52.062;4.508;2022-08-01T03:31:33;7.65;;;2.42;;
72728;SDS011;60843;52.062;4.508;2022-08-01T03:34:00;6.55;;;2.88;;
72728;SDS011;60843;52.062;4.508;2022-08-01T03:36:26;5.57;;;2.72;;
72728;SDS011;60843;52.062;4.508;2022-08-01T03:38:52;5.80;;;2.65;;
72728;SDS011;60843;52.062;4.508;2022-08-01T03:41:21;4.20;;;2.50;;
72728;SDS011;60843;52.062;4.508;2022-08-01T03:44:24;5.22;;;2.90;;
72728;SDS011;60843;52.062;4.508;2022-08-01T03:46:46;8.07;;;2.25;;
72728;SDS011;60843;52.062;4.508;2022-08-01T03:49:17;7.25;;;2.60;;
72728;SDS011;60843;52.062;4.508;2022-08-01T03:51:44;7.38;;;2.47;;
72728;SDS011;60843;52.062;4.508;2022-08-01T03:54:13;4.20;;;2.70;;
72728;SDS011;60843;52.062;4.508;2022-08-01T03:56:39;3.30;;;2.33;;
72728;SDS011;60843;52.062;4.508;2022-08-01T03:59:06;7.57;;;3.17;;
72728;SDS011;60843;52.062;4.508;2022-08-01T04:01:34;5.22;;;2.63;;
72728;SDS011;60843;52.062;4.508;2022-08-01T04:03:59;5.55;;;2.70;;
72728;SDS011;60843;52.062;4.508;2022-08-01T04:06:25;4.60;;;2.50;;
72728;SDS011;60843;52.062;4.508;2022-08-01T04:08:50;6.53;;;2.33;;
72728;SDS011;60843;52.062;4.508;2022-08-01T04:11:25;5.55;;;2.92;;
72728;SDS011;60843;52.062;4.508;2022-08-01T04:13:52;3.75;;;2.28;;
72728;SDS011;60843;52.062;4.508;2022-08-01T04:16:19;6.38;;;2.92;;
72728;SDS011;60843;52.062;4.508;2022-08-01T04:18:45;3.65;;;2.67;;
72728;SDS011;60843;52.062;4.508;2022-08-01T04:21:10;5.20;;;3.20;;
72728;SDS011;60843;52.062;4.508;2022-08-01T04:23:36;5.78;;;2.72;;
72728;SDS011;60843;52.062;4.508;2022-08-01T04:26:03;5.72;;;2.97;;
72728;SDS011;60843;52.062;4.508;2022-08-01T04:28:30;3.88;;;2.33;;
72728;SDS011;60843;52.062;4.508;2022-08-01T04:30:57;6.15;;;2.97;;
72728;SDS011;60843;52.062;4.508;2022-08-01T04:33:22;8.70;;;2.85;;
72728;SDS011;60843;52.062;4.508;2022-08-01T04:35:49;5.20;;;2.80;;
72728;SDS011;60843;52.062;4.508;2022-08-01T04:38:17;5.75;;;2.58;;
72728;SDS011;60843;52.062;4.508;2022-08-01T04:40:45;5.28;;;2.47;;
72728;SDS011;60843;52.062;4.508;2022-08-01T04:43:11;4.68;;;2.75;;
72728;SDS011;60843;52.062;4.508;2022-08-01T04:45:37;4.47;;;2.42;;
72728;SDS011;60843;52.062;4.508;2022-08-01T04:48:04;7.25;;;2.47;;
72728;SDS011;60843;52.062;4.508;2022-08-01T04:50:31;5.53;;;2.20;;
72728;SDS011;60843;52.062;4.508;2022-08-01T04:52:57;3.45;;;1.92;;
72728;SDS011;60843;52.062;4.508;2022-08-01T04:55:22;3.92;;;1.90;;
72728;SDS011;60843;52.062;4.508;2022-08-01T04:57:48;4.20;;;2.00;;
72728;SDS011;60843;52.062;4.508;2022-08-01T05:00:13;2.60;;;1.73;;
72728;SDS011;60843;52.062;4.508;2022-08-01T05:02:41;2.83;;;1.83;;
72728;SDS011;60843;52.062;4.508;2022-08-01T05:05:07;3.72;;;1.77;;
72728;SDS011;60843;52.062;4.508;2022-08-01T05:07:33;3.40;;;2.10;;
72728;SDS011;60843;52.062;4.508;2022-08-01T05:10:01;5.65;;;2.35;;
72728;SDS011;60843;52.062;4.508;2022-08-01T05:12:29;3.47;;;2.08;;
72728;SDS011;60843;52.062;4.508;2022-08-01T05:14:56;5.05;;;2.47;;
72728;SDS011;60843;52.062;4.508;2022-08-01T05:17:22;4.03;;;2.22;;
72728;SDS011;60843;52.062;4.508;2022-08-01T05:19:48;7.47;;;2.28;;
72728;SDS011;60843;52.062;4.508;2022-08-01T05:22:13;4.97;;;2.33;;
72728;SDS011;60843;52.062;4.508;2022-08-01T05:24:39;6.87;;;2.50;;
72728;SDS011;60843;52.062;4.508;2022-08-01T05:27:05;3.80;;;2.38;;
72728;SDS011;60843;52.062;4.508;2022-08-01T05:29:32;4.03;;;2.38;;
72728;SDS011;60843;52.062;4.508;2022-08-01T05:31:58;4.53;;;2.42;;
72728;SDS011;60843;52.062;4.508;2022-08-01T05:34:24;5.22;;;2.85;;
72728;SDS011;60843;52.062;4.508;2022-08-01T05:36:49;5.05;;;2.63;;
72728;SDS011;60843;52.062;4.508;2022-08-01T05:39:15;7.30;;;2.40;;
72728;SDS011;60843;52.062;4.508;2022-08-01T05:41:40;3.53;;;2.23;;
72728;SDS011;60843;52.062;4.508;2022-08-01T05:44:06;4.18;;;2.55;;
72728;SDS011;60843;52.062;4.508;2022-08-01T05:46:32;4.93;;;2.60;;
72728;SDS011;60843;52.062;4.508;2022-08-01T05:48:58;4.60;;;2.40;;
72728;SDS011;60843;52.062;4.508;2022-08-01T05:51:24;3.95;;;2.58;;
72728;SDS011;60843;52.062;4.508;2022-08-01T05:53:50;3.58;;;2.55;;
72728;SDS011;60843;52.062;4.508;2022-08-01T05:56:16;5.03;;;2.50;;
72728;SDS011;60843;52.062;4.508;2022-08-01T05:58:41;6.72;;;2.97;;
72728;SDS011;60843;52.062;4.508;2022-08-01T06:01:07;3.80;;;2.80;;
72728;SDS011;60843;52.062;4.508;2022-08-01T06:03:32;4.40;;;2.63;;
72728;SDS011;60843;52.062;4.508;2022-08-01T06:05:58;5.80;;;3.13;;
72728;SDS011;60843;52.062;4.508;2022-08-01T06:08:24;5.13;;;2.72;;
72728;SDS011;60843;52.062;4.508;2022-08-01T06:10:50;5.23;;;2.67;;
72728;SDS011;60843;52.062;4.508;2022-08-01T06:13:15;6.72;;;2.72;;
72728;SDS011;60843;52.062;4.508;2022-08-01T06:15:40;4.20;;;2.77;;
72728;SDS011;60843;52.062;4.508;2022-08-01T06:18:06;8.73;;;2.95;;
72728;SDS011;60843;52.062;4.508;2022-08-01T06:20:31;4.80;;;2.97;;
72728;SDS011;60843;52.062;4.508;2022-08-01T06:22:56;6.18;;;3.40;;
72728;SDS011;60843;52.062;4.508;2022-08-01T06:25:22;7.40;;;3.40;;
72728;SDS011;60843;52.062;4.508;2022-08-01T06:27:47;9.57;;;3.70;;
72728;SDS011;60843;52.062;4.508;2022-08-01T06:30:14;8.85;;;3.45;;
72728;SDS011;60843;52.062;4.508;2022-08-01T06:32:39;6.60;;;3.30;;
72728;SDS011;60843;52.062;4.508;2022-08-01T06:35:05;11.40;;;4.10;;
72728;SDS011;60843;52.062;4.508;2022-08-01T06:37:31;5.38;;;3.45;;
72728;SDS011;60843;52.062;4.508;2022-08-01T06:40:00;6.20;;;3.83;;
72728;SDS011;60843;52.062;4.508;2022-08-01T06:42:29;7.03;;;3.38;;
72728;SDS011;60843;52.062;4.508;2022-08-01T06:44:56;7.28;;;3.95;;
72728;SDS011;60843;52.062;4.508;2022-08-01T06:47:22;9.30;;;4.55;;
72728;SDS011;60843;52.062;4.508;2022-08-01T06:49:48;10.57;;;3.90;;
72728;SDS011;60843;52.062;4.508;2022-08-01T06:52:13;14.70;;;4.75;;
72728;SDS011;60843;52.062;4.508;2022-08-01T06:54:38;12.63;;;4.43;;
72728;SDS011;60843;52.062;4.508;2022-08-01T06:57:07;18.40;;;4.70;;
72728;SDS011;60843;52.062;4.508;2022-08-01T06:59:32;19.65;;;4.25;;
72728;SDS011;60843;52.062;4.508;2022-08-01T07:01:57;15.98;;;5.10;;
72728;SDS011;60843;52.062;4.508;2022-08-01T07:04:23;15.30;;;5.57;;
72728;SDS011;60843;52.062;4.508;2022-08-01T07:06:48;16.67;;;5.32;;
72728;SDS011;60843;52.062;4.508;2022-08-01T07:09:14;12.23;;;4.57;;
72728;SDS011;60843;52.062;4.508;2022-08-01T07:11:39;19.40;;;5.00;;
72728;SDS011;60843;52.062;4.508;2022-08-01T07:14:04;18.27;;;4.97;;
72728;SDS011;60843;52.062;4.508;2022-08-01T07:16:30;17.13;;;4.53;;
72728;SDS011;60843;52.062;4.508;2022-08-01T07:18:55;17.50;;;4.53;;
72728;SDS011;60843;52.062;4.508;2022-08-01T07:21:20;17.40;;;4.27;;
72728;SDS011;60843;52.062;4.508;2022-08-01T07:23:46;16.87;;;4.53;;
72728;SDS011;60843;52.062;4.508;2022-08-01T07:26:11;16.63;;;4.05;;
72728;SDS011;60843;52.062;4.508;2022-08-01T07:28:38;15.13;;;3.65;;
72728;SDS011;60843;52.062;4.508;2022-08-01T07:31:03;12.13;;;3.53;;
72728;SDS011;60843;52.062;4.508;2022-08-01T07:33:28;17.38;;;3.72;;
72728;SDS011;60843;52.062;4.508;2022-08-01T07:35:54;11.40;;;3.13;;
72728;SDS011;60843;52.062;4.508;2022-08-01T07:38:19;14.45;;;3.90;;
72728;SDS011;60843;52.062;4.508;2022-08-01T07:40:45;15.80;;;3.50;;
72728;SDS011;60843;52.062;4.508;2022-08-01T07:43:10;12.88;;;3.67;;
72728;SDS011;60843;52.062;4.508;2022-08-01T07:45:35;12.53;;;3.10;;
72728;SDS011;60843;52.062;4.508;2022-08-01T07:48:04;13.60;;;2.80;;
72728;SDS011;60843;52.062;4.508;2022-08-01T07:50:30;11.45;;;3.72;;
72728;SDS011;60843;52.062;4.508;2022-08-01T07:52:56;14.20;;;3.47;;
72728;SDS011;60843;52.062;4.508;2022-08-01T07:55:21;11.83;;;2.70;;
72728;SDS011;60843;52.062;4.508;2022-08-01T07:57:46;11.00;;;3.40;;
72728;SDS011;60843;52.062;4.508;2022-08-01T08:00:12;10.68;;;2.10;;
72728;SDS011;60843;52.062;4.508;2022-08-01T08:02:38;7.47;;;2.33;;
72728;SDS011;60843;52.062;4.508;2022-08-01T08:05:03;11.90;;;2.60;;
72728;SDS011;60843;52.062;4.508;2022-08-01T08:07:29;7.75;;;2.40;;
72728;SDS011;60843;52.062;4.508;2022-08-01T08:09:55;9.88;;;2.88;;
72728;SDS011;60843;52.062;4.508;2022-08-01T08:12:20;12.77;;;2.65;;
72728;SDS011;60843;52.062;4.508;2022-08-01T08:14:46;12.10;;;2.70;;
72728;SDS011;60843;52.062;4.508;2022-08-01T08:17:11;12.13;;;2.63;;
72728;SDS011;60843;52.062;4.508;2022-08-01T08:19:36;8.95;;;2.25;;
72728;SDS011;60843;52.062;4.508;2022-08-01T08:22:04;12.15;;;3.05;;
72728;SDS011;60843;52.062;4.508;2022-08-01T08:24:30;18.67;;;2.65;;
72728;SDS011;60843;52.062;4.508;2022-08-01T08:26:59;13.33;;;2.73;;
72728;SDS011;60843;52.062;4.508;2022-08-01T08:29:26;9.73;;;2.67;;
72728;SDS011;60843;52.062;4.508;2022-08-01T08:34:19;7.75;;;2.10;;
72728;SDS011;60843;52.062;4.508;2022-08-01T08:36:45;11.55;;;3.00;;
72728;SDS011;60843;52.062;4.508;2022-08-01T08:39:10;12.27;;;3.03;;
72728;SDS011;60843;52.062;4.508;2022-08-01T08:41:36;10.10;;;2.17;;
72728;SDS011;60843;52.062;4.508;2022-08-01T08:44:02;6.60;;;2.63;;
72728;SDS011;60843;52.062;4.508;2022-08-01T08:46:28;9.23;;;2.47;;
72728;SDS011;60843;52.062;4.508;2022-08-01T08:48:57;11.00;;;3.03;;
72728;SDS011;60843;52.062;4.508;2022-08-01T08:51:26;11.82;;;2.63;;
72728;SDS011;60843;52.062;4.508;2022-08-01T08:53:53;7.43;;;2.40;;
72728;SDS011;60843;52.062;4.508;2022-08-01T08:56:20;10.32;;;2.45;;
72728;SDS011;60843;52.062;4.508;2022-08-01T08:58:46;12.10;;;2.55;;
72728;SDS011;60843;52.062;4.508;2022-08-01T09:01:12;6.32;;;2.22;;
72728;SDS011;60843;52.062;4.508;2022-08-01T09:03:38;8.65;;;2.30;;
72728;SDS011;60843;52.062;4.508;2022-08-01T09:06:04;8.18;;;2.15;;
72728;SDS011;60843;52.062;4.508;2022-08-01T09:08:29;16.42;;;2.30;;
72728;SDS011;60843;52.062;4.508;2022-08-01T09:10:55;9.68;;;2.10;;
72728;SDS011;60843;52.062;4.508;2022-08-01T09:13:20;11.48;;;2.35;;
72728;SDS011;60843;52.062;4.508;2022-08-01T09:15:50;12.82;;;2.42;;
72728;SDS011;60843;52.062;4.508;2022-08-01T09:18:32;6.18;;;1.55;;
72728;SDS011;60843;52.062;4.508;2022-08-01T09:23:42;8.23;;;1.90;;
72728;SDS011;60843;52.062;4.508;2022-08-01T09:26:19;11.13;;;1.75;;
72728;SDS011;60843;52.062;4.508;2022-08-01T09:28:58;6.75;;;1.30;;
72728;SDS011;60843;52.062;4.508;2022-08-01T09:31:27;4.13;;;1.20;;
72728;SDS011;60843;52.062;4.508;2022-08-01T09:33:55;6.15;;;1.65;;
72728;SDS011;60843;52.062;4.508;2022-08-01T09:36:26;11.23;;;1.83;;
72728;SDS011;60843;52.062;4.508;2022-08-01T09:38:53;5.32;;;1.00;;
72728;SDS011;60843;52.062;4.508;2022-08-01T09:41:29;8.27;;;1.25;;
72728;SDS011;60843;52.062;4.508;2022-08-01T09:43:56;7.45;;;1.38;;
72728;SDS011;60843;52.062;4.508;2022-08-01T09:46:22;6.47;;;1.30;;
72728;SDS011;60843;52.062;4.508;2022-08-01T09:48:57;7.15;;;1.45;;
72728;SDS011;60843;52.062;4.508;2022-08-01T09:51:28;9.45;;;1.48;;
72728;SDS011;60843;52.062;4.508;2022-08-01T09:54:02;3.08;;;1.10;;
72728;SDS011;60843;52.062;4.508;2022-08-01T09:56:35;8.40;;;1.42;;
72728;SDS011;60843;52.062;4.508;2022-08-01T09:59:02;6.95;;;1.80;;
72728;SDS011;60843;52.062;4.508;2022-08-01T10:01:28;7.60;;;1.48;;
72728;SDS011;60843;52.062;4.508;2022-08-01T10:04:09;3.80;;;1.15;;
72728;SDS011;60843;52.062;4.508;2022-08-01T10:06:37;5.15;;;1.50;;
72728;SDS011;60843;52.062;4.508;2022-08-01T10:09:04;6.45;;;1.30;;
72728;SDS011;60843;52.062;4.508;2022-08-01T10:11:30;4.85;;;1.00;;
72728;SDS011;60843;52.062;4.508;2022-08-01T10:13:57;2.38;;;0.85;;
72728;SDS011;60843;52.062;4.508;2022-08-01T10:16:25;3.67;;;1.10;;
72728;SDS011;60843;52.062;4.508;2022-08-01T10:18:52;5.35;;;1.10;;
72728;SDS011;60843;52.062;4.508;2022-08-01T10:21:18;6.15;;;1.10;;
72728;SDS011;60843;52.062;4.508;2022-08-01T10:23:44;6.80;;;1.48;;
72728;SDS011;60843;52.062;4.508;2022-08-01T10:26:10;5.75;;;1.27;;
72728;SDS011;60843;52.062;4.508;2022-08-01T10:28:37;6.60;;;1.23;;
72728;SDS011;60843;52.062;4.508;2022-08-01T10:31:03;4.70;;;0.88;;
72728;SDS011;60843;52.062;4.508;2022-08-01T10:33:29;6.50;;;1.20;;
72728;SDS011;60843;52.062;4.508;2022-08-01T10:35:55;4.13;;;1.05;;
72728;SDS011;60843;52.062;4.508;2022-08-01T10:38:22;6.78;;;1.33;;
72728;SDS011;60843;52.062;4.508;2022-08-01T10:40:48;7.63;;;1.30;;
72728;SDS011;60843;52.062;4.508;2022-08-01T10:43:15;5.50;;;1.15;;
72728;SDS011;60843;52.062;4.508;2022-08-01T10:45:42;2.60;;;0.70;;
72728;SDS011;60843;52.062;4.508;2022-08-01T10:48:22;3.85;;;1.25;;
72728;SDS011;60843;52.062;4.508;2022-08-01T10:50:56;3.42;;;1.33;;
72728;SDS011;60843;52.062;4.508;2022-08-01T10:53:24;8.85;;;1.42;;
72728;SDS011;60843;52.062;4.508;2022-08-01T10:58:27;5.10;;;1.58;;
72728;SDS011;60843;52.062;4.508;2022-08-01T11:01:22;7.65;;;1.52;;
72728;SDS011;60843;52.062;4.508;2022-08-01T11:06:20;8.60;;;1.40;;
72728;SDS011;60843;52.062;4.508;2022-08-01T11:08:50;6.00;;;1.45;;
72728;SDS011;60843;52.062;4.508;2022-08-01T11:11:16;5.05;;;1.40;;
72728;SDS011;60843;52.062;4.508;2022-08-01T11:16:36;6.88;;;1.40;;
72728;SDS011;60843;52.062;4.508;2022-08-01T11:19:02;10.15;;;2.08;;
72728;SDS011;60843;52.062;4.508;2022-08-01T11:27:17;10.13;;;1.55;;
72728;SDS011;60843;52.062;4.508;2022-08-01T11:32:55;3.28;;;0.75;;
72728;SDS011;60843;52.062;4.508;2022-08-01T11:35:21;5.70;;;1.00;;
72728;SDS011;60843;52.062;4.508;2022-08-01T11:37:49;4.25;;;1.00;;
72728;SDS011;60843;52.062;4.508;2022-08-01T11:42:42;4.22;;;1.02;;
72728;SDS011;60843;52.062;4.508;2022-08-01T11:45:08;10.25;;;1.33;;
72728;SDS011;60843;52.062;4.508;2022-08-01T11:47:43;2.30;;;1.10;;
72728;SDS011;60843;52.062;4.508;2022-08-01T11:53:00;4.72;;;1.10;;
72728;SDS011;60843;52.062;4.508;2022-08-01T11:55:27;2.40;;;1.00;;
72728;SDS011;60843;52.062;4.508;2022-08-01T12:00:32;2.75;;;0.95;;
72728;SDS011;60843;52.062;4.508;2022-08-01T12:03:02;6.45;;;1.80;;
72728;SDS011;60843;52.062;4.508;2022-08-01T12:05:29;7.05;;;1.27;;
72728;SDS011;60843;52.062;4.508;2022-08-01T12:07:58;2.65;;;0.70;;
72728;SDS011;60843;52.062;4.508;2022-08-01T12:10:29;3.13;;;0.85;;
72728;SDS011;60843;52.062;4.508;2022-08-01T12:13:04;4.13;;;1.00;;
72728;SDS011;60843;52.062;4.508;2022-08-01T12:15:32;2.47;;;0.75;;
72728;SDS011;60843;52.062;4.508;2022-08-01T12:18:02;7.40;;;1.10;;
72728;SDS011;60843;52.062;4.508;2022-08-01T12:20:32;9.50;;;1.20;;
72728;SDS011;60843;52.062;4.508;2022-08-01T12:23:00;5.70;;;1.10;;
72728;SDS011;60843;52.062;4.508;2022-08-01T12:25:26;7.43;;;1.02;;
72728;SDS011;60843;52.062;4.508;2022-08-01T12:27:52;3.28;;;0.82;;
72728;SDS011;60843;52.062;4.508;2022-08-01T12:30:18;6.80;;;1.00;;
72728;SDS011;60843;52.062;4.508;2022-08-01T12:32:47;4.63;;;1.23;;
72728;SDS011;60843;52.062;4.508;2022-08-01T12:35:14;7.03;;;1.48;;
72728;SDS011;60843;52.062;4.508;2022-08-01T12:37:42;4.05;;;1.40;;
72728;SDS011;60843;52.062;4.508;2022-08-01T12:40:12;5.35;;;1.42;;
72728;SDS011;60843;52.062;4.508;2022-08-01T12:42:41;3.60;;;1.10;;
72728;SDS011;60843;52.062;4.508;2022-08-01T12:45:09;2.95;;;1.15;;
72728;SDS011;60843;52.062;4.508;2022-08-01T12:47:36;4.00;;;1.20;;
72728;SDS011;60843;52.062;4.508;2022-08-01T12:50:04;10.65;;;1.42;;
72728;SDS011;60843;52.062;4.508;2022-08-01T12:52:31;7.60;;;1.15;;
72728;SDS011;60843;52.062;4.508;2022-08-01T12:55:16;6.55;;;1.40;;
72728;SDS011;60843;52.062;4.508;2022-08-01T12:58:05;3.72;;;1.25;;
72728;SDS011;60843;52.062;4.508;2022-08-01T13:00:35;6.13;;;1.50;;
72728;SDS011;60843;52.062;4.508;2022-08-01T13:05:41;4.22;;;1.27;;
72728;SDS011;60843;52.062;4.508;2022-08-01T13:08:14;3.60;;;1.35;;
72728;SDS011;60843;52.062;4.508;2022-08-01T13:10:40;4.85;;;1.25;;
72728;SDS011;60843;52.062;4.508;2022-08-01T13:13:06;5.28;;;1.20;;
72728;SDS011;60843;52.062;4.508;2022-08-01T13:15:33;3.83;;;0.95;;
72728;SDS011;60843;52.062;4.508;2022-08-01T13:23:10;4.10;;;1.15;;
72728;SDS011;60843;52.062;4.508;2022-08-01T13:25:46;6.47;;;1.30;;
72728;SDS011;60843;52.062;4.508;2022-08-01T13:28:19;2.50;;;1.00;;
72728;SDS011;60843;52.062;4.508;2022-08-01T13:31:01;6.47;;;1.25;;
72728;SDS011;60843;52.062;4.508;2022-08-01T13:33:28;5.40;;;1.45;;
72728;SDS011;60843;52.062;4.508;2022-08-01T13:36:05;5.30;;;1.23;;
72728;SDS011;60843;52.062;4.508;2022-08-01T13:38:31;6.28;;;1.10;;
72728;SDS011;60843;52.062;4.508;2022-08-01T13:41:15;6.10;;;1.63;;
72728;SDS011;60843;52.062;4.508;2022-08-01T13:43:40;2.80;;;0.90;;
72728;SDS011;60843;52.062;4.508;2022-08-01T13:46:06;3.93;;;1.40;;
72728;SDS011;60843;52.062;4.508;2022-08-01T13:48:31;4.60;;;1.30;;
72728;SDS011;60843;52.062;4.508;2022-08-01T13:50:57;4.60;;;1.25;;
72728;SDS011;60843;52.062;4.508;2022-08-01T13:53:23;4.95;;;1.05;;
72728;SDS011;60843;52.062;4.508;2022-08-01T13:55:48;5.77;;;1.23;;
72728;SDS011;60843;52.062;4.508;2022-08-01T13:58:14;3.15;;;1.10;;
72728;SDS011;60843;52.062;4.508;2022-08-01T14:00:40;5.65;;;1.23;;
72728;SDS011;60843;52.062;4.508;2022-08-01T14:03:05;5.53;;;1.25;;
72728;SDS011;60843;52.062;4.508;2022-08-01T14:05:31;6.23;;;1.30;;
72728;SDS011;60843;52.062;4.508;2022-08-01T14:07:56;6.15;;;1.27;;
72728;SDS011;60843;52.062;4.508;2022-08-01T14:10:21;8.38;;;1.55;;
72728;SDS011;60843;52.062;4.508;2022-08-01T14:12:47;5.18;;;0.98;;
72728;SDS011;60843;52.062;4.508;2022-08-01T14:15:13;5.80;;;1.20;;
72728;SDS011;60843;52.062;4.508;2022-08-01T14:17:38;6.43;;;1.27;;
72728;SDS011;60843;52.062;4.508;2022-08-01T14:20:04;4.90;;;1.42;;
72728;SDS011;60843;52.062;4.508;2022-08-01T14:22:30;4.55;;;1.30;;
72728;SDS011;60843;52.062;4.508;2022-08-01T14:24:55;8.27;;;1.23;;
72728;SDS011;60843;52.062;4.508;2022-08-01T14:27:21;8.73;;;1.20;;
72728;SDS011;60843;52.062;4.508;2022-08-01T14:29:46;8.10;;;1.50;;
72728;SDS011;60843;52.062;4.508;2022-08-01T14:32:12;7.50;;;1.50;;
72728;SDS011;60843;52.062;4.508;2022-08-01T14:34:37;4.60;;;0.98;;
72728;SDS011;60843;52.062;4.508;2022-08-01T14:37:03;6.63;;;1.48;;
72728;SDS011;60843;52.062;4.508;2022-08-01T14:39:28;7.18;;;1.20;;
72728;SDS011;60843;52.062;4.508;2022-08-01T14:41:54;5.38;;;1.20;;
72728;SDS011;60843;52.062;4.508;2022-08-01T14:44:19;8.17;;;1.60;;
72728;SDS011;60843;52.062;4.508;2022-08-01T14:46:45;5.63;;;1.17;;
72728;SDS011;60843;52.062;4.508;2022-08-01T14:49:13;6.82;;;1.73;;
72728;SDS011;60843;52.062;4.508;2022-08-01T14:51:38;6.60;;;1.20;;
72728;SDS011;60843;52.062;4.508;2022-08-01T14:54:04;5.63;;;1.33;;
72728;SDS011;60843;52.062;4.508;2022-08-01T14:56:30;6.30;;;1.40;;
72728;SDS011;60843;52.062;4.508;2022-08-01T14:58:55;4.65;;;1.25;;
72728;SDS011;60843;52.062;4.508;2022-08-01T15:01:21;3.63;;;1.02;;
72728;SDS011;60843;52.062;4.508;2022-08-01T15:03:46;5.93;;;1.30;;
72728;SDS011;60843;52.062;4.508;2022-08-01T15:06:12;8.80;;;1.95;;
72728;SDS011;60843;52.062;4.508;2022-08-01T15:08:38;4.88;;;1.30;;
72728;SDS011;60843;52.062;4.508;2022-08-01T15:11:04;8.47;;;1.40;;
72728;SDS011;60843;52.062;4.508;2022-08-01T15:13:29;4.93;;;1.10;;
72728;SDS011;60843;52.062;4.508;2022-08-01T15:15:54;3.22;;;1.00;;
72728;SDS011;60843;52.062;4.508;2022-08-01T15:18:23;6.10;;;1.58;;
72728;SDS011;60843;52.062;4.508;2022-08-01T15:20:48;6.20;;;1.27;;
72728;SDS011;60843;52.062;4.508;2022-08-01T15:23:13;5.20;;;1.23;;
72728;SDS011;60843;52.062;4.508;2022-08-01T15:25:42;4.82;;;1.02;;
72728;SDS011;60843;52.062;4.508;2022-08-01T15:28:08;4.90;;;1.07;;
72728;SDS011;60843;52.062;4.508;2022-08-01T15:30:34;5.97;;;1.10;;
72728;SDS011;60843;52.062;4.508;2022-08-01T15:32:59;5.00;;;1.07;;